• Join FlightAware (Why Join?)
  • Login
  • US Flag 
04:14PM EDT


 

Airport Tracker/Info


-or-


 

Live Flight TrackerFlight Track Log ✈ AWE282 ✈ 05-Jul-2013 ✈ KPHX - KSJC

Flight Track Log - Related Links

Times and Time Zones

All times are in EDT time to prevent confusion due to time zone crossing. See the AWE282 flight status page for this flight to view local times or setup timezone preferences in your user account.

Time Position Orientation Groundspeed Altitude Reporting Facility
EDT Latitude Longitude Course Direction KTS MPH feet Rate Location/Type
10:27AM 33.4333 -112.0333 281° West 144 166 1,900  Level Phoenix TRACON
10:28AM 33.4167 -112.0667 239° Southwest 173 199 3,000 1,800 Climbing Phoenix TRACON
10:29AM 33.4022 -112.1428 257° West 228 262 5,300 2,520 Climbing Albuquerque Center
10:30AM 33.4356 -112.4387 273° West  Level FlightAware Approximate
10:30AM 33.3786 -112.2294 252° West 267 307 8,600  Level Albuquerque Center
10:31AM 33.4416 -112.5848 273° West  Level FlightAware Approximate
10:31AM 33.3997 -112.3222 285° West 293 337 11,400  Level Albuquerque Center
10:32AM 33.4473 -112.7310 273° West  Level FlightAware Approximate
10:32AM 33.4214 -112.4361 283° West 353 406 12,000  Level Albuquerque Center
10:33AM 33.4599 -112.8760 281° West  Level FlightAware Approximate
10:33AM 33.4308 -112.5611 275° West 374 430 12,600  Level Albuquerque Center
10:34AM 33.4444 -112.6994 277° West 381 438 15,800 1,680 Climbing Albuquerque Center
10:35AM 33.4556 -112.8325 276° West 394 453 16,100 1,500 Climbing Albuquerque Center
10:36AM 33.4814 -112.9622 283° West 402 463 19,000 2,340 Climbing Albuquerque Center
10:37AM 33.5058 -113.0917 283° West 400 460 20,900 1,800 Climbing Albuquerque Center
10:38AM 33.5300 -113.2217 283° West 401 461 22,800 1,200 Climbing Albuquerque Center
10:39AM 33.5558 -113.3544 283° West 407 468 23,400 1,320 Climbing Albuquerque Center
10:40AM 33.5886 -113.5153 284° West 415 478 25,600 1,680 Climbing Albuquerque Center
10:41AM 33.6228 -113.6447 288° West 427 491 26,900 720 Climbing Albuquerque Center
10:43AM 33.6861 -113.7697 301° West 435 501 27,100 1,020 Climbing Albuquerque Center
10:44AM 33.7611 -113.8908 307° West 448 516 29,000 1,800 Climbing Albuquerque Center
10:45AM 33.8089 -114.0253 293° West 447 514 30,800 2,040 Climbing Albuquerque Center
10:46AM 33.8450 -114.1772 286° West 435 501 33,200 1,560 Climbing Los Angeles Center
10:47AM 33.8758 -114.3144 285° West 429 494 34,000 300 Climbing Los Angeles Center
10:48AM 33.9069 -114.4511 285° West 427 491 33,900 -60 Descending Los Angeles Center
10:49AM 33.9367 -114.5883 285° West 426 490 33,900  Level Los Angeles Center
10:50AM 33.9728 -114.7519 285° West 423 487 33,900  Level Los Angeles Center
10:51AM 34.0014 -114.8894 284° West 425 489 34,000  Climbing Los Angeles Center
10:52AM 34.0300 -115.0236 284° West 419 482 34,000  Level Los Angeles Center
10:53AM 34.0586 -115.1597 284° West 419 482 34,000 -60 Level Los Angeles Center
10:54AM 34.0875 -115.2956 284° West 420 483 33,900 -60 Descending Los Angeles Center
10:55AM 34.1164 -115.4314 284° West 420 483 33,900  Level Los Angeles Center
10:56AM 34.1436 -115.5669 284° West 419 482 34,000  Climbing Los Angeles Center
10:57AM 34.1711 -115.7017 284° West 416 479 34,000  Level Los Angeles Center
10:58AM 34.2053 -115.8642 284° West 419 482 34,000  Level Los Angeles Center
10:59AM 34.2361 -116.0233 283° West 419 482 34,000  Level Los Angeles Center
11:00AM 34.2633 -116.1578 284° West 415 478 34,000  Level Los Angeles Center
11:01AM 34.2919 -116.2956 284° West 421 484 34,000  Level Los Angeles Center
11:02AM 34.3189 -116.4322 283° West 420 483 34,000  Level Los Angeles Center
11:03AM 34.3433 -116.5714 282° West 422 486 34,000  Level Los Angeles Center
11:04AM 34.3700 -116.7075 283° West 420 483 34,000  Level Los Angeles Center
11:05AM 34.4025 -116.8717 284° West 419 482 34,000  Level Los Angeles Center
11:06AM 34.4294 -117.0089 283° West 419 482 34,000  Level Los Angeles Center
11:07AM 34.4556 -117.1447 283° West 417 480 34,000  Level Los Angeles Center
11:08AM 34.4811 -117.2800 283° West 414 476 34,000  Level Los Angeles Center
11:09AM 34.5081 -117.4156 284° West 412 474 34,000  Level Los Angeles Center
11:10AM 34.5333 -117.5553 282° West 419 482 34,000  Level Los Angeles Center
11:11AM 34.5586 -117.6919 283° West 416 479 34,000  Level Los Angeles Center
11:12AM 34.5847 -117.8283 283° West 414 476 34,000  Level Los Angeles Center
11:13AM 34.6100 -117.9669 283° West 416 479 34,000  Level Los Angeles Center
11:14AM 34.6692 -118.1189 295° West 416 479 34,000  Level Los Angeles Center
11:16AM 34.7436 -118.2303 309° West 418 481 34,000  Level Los Angeles Center
11:17AM 34.8194 -118.3408 310° West 423 487 34,000  Level Los Angeles Center
11:18AM 34.8944 -118.4494 310° West 419 482 34,000 -60 Level Los Angeles Center
11:19AM 34.9819 -118.5739 311° West 417 480 33,900 -60 Descending Los Angeles Center
11:20AM 35.0492 -118.6903 305° West 419 482 33,900  Level Los Angeles Center
11:21AM 35.1153 -118.8386 299° West 418 481 34,000  Climbing Los Angeles Center
11:22AM 35.1744 -118.9611 301° West 418 481 34,000  Level Los Angeles Center
11:23AM 35.2342 -119.0850 301° West 421 484 34,000  Level Los Angeles Center
11:24AM 35.2900 -119.2089 299° West 419 482 34,000  Level Los Angeles Center
11:25AM 35.3386 -119.3364 295° West 418 481 34,000 -60 Level Los Angeles Center
11:26AM 35.3878 -119.4625 296° West 414 476 33,900 -60 Descending Los Angeles Center
11:27AM 35.4492 -119.6147 296° West 414 476 33,900  Level Los Angeles Center
11:28AM 35.4972 -119.7389 295° West 407 468 34,000  Climbing Los Angeles Center
11:29AM 35.5456 -119.8633 296° West 404 465 33,900 -60 Descending Los Angeles Center
11:30AM 35.5947 -119.9886 296° West 407 468 33,900  Level Los Angeles Center
11:31AM 35.6439 -120.1150 296° West 412 474 34,000  Climbing Los Angeles Center
11:32AM 35.7014 -120.2681 295° West 416 479 34,000 -300 Level Los Angeles Center
11:33AM 35.7492 -120.3947 295° West 413 475 33,400 -780 Descending Los Angeles Center
11:34AM 35.7989 -120.5225 296° West 417 480 32,400 -960 Descending Los Angeles Center
11:35AM 35.8728 -120.6333 309° West 423 487 31,500 -960 Descending Los Angeles Center
11:36AM 35.9525 -120.7414 312° West 425 489 30,500 -1,080 Descending Los Angeles Center
11:37AM 36.0506 -120.8719 313° West 431 496 29,300 -1,260 Descending Los Angeles Center
11:39AM 36.1461 -120.9992 313° West 431 496 27,700 -1,740 Descending Oakland Center
11:40AM 36.2250 -121.1069 312° West 426 490 25,400 -2,280 Descending Oakland Center
11:41AM 36.3014 -121.2114 312° West 416 479 23,100 -2,400 Descending Oakland Center
11:42AM 36.3764 -121.3117 313° West 403 464 20,600 -2,520 Descending Oakland Center
11:43AM 36.4483 -121.4128 312° West 396 456 18,000 -2,640 Descending Oakland Center
11:44AM 36.5547 -121.4439 347° North 406 467 15,300 -2,340 Descending Oakland Center
11:45AM 36.6583 -121.4708 348° North 391 450 13,300 -1,860 Descending Oakland Center
11:46AM 36.7492 -121.4925 349° North 348 400 11,600 -1,500 Descending Oakland Center
11:47AM 36.8358 -121.5150 348° North 320 368 10,300 -1,620 Descending Oakland Center
11:48AM 36.9153 -121.5394 346° North 303 349 8,400 -1,800 Descending Oakland Center
11:49AM 36.9983 -121.5994 330° Northwest 291 335 6,700 -1,200 Descending Oakland Center
11:50AM 37.0611 -121.6444 330° Northwest 270 311 6,000 -840 Descending Oakland Center
11:51AM 37.1197 -121.6833 332° Northwest 243 280 5,100 -660 Descending Oakland Center
11:52AM 37.1667 -121.7167 330° Northwest 194 223 4,700 -660 Descending Northern Cal TRACON
11:53AM 37.2000 -121.7667 310° West 184 212 3,900 -960 Descending Northern Cal TRACON
11:54AM 37.2500 -121.8000 332° Northwest 172 198 2,900 -1,020 Descending Northern Cal TRACON